sensor_id;sensor_type;location;lat;lon;timestamp;pressure;altitude;pressure_sealevel;temperature;humidity
83195;BME280;73090;49.282;11.402;2023-11-21T00:02:51;95869.91;;;5.27;97.81
83195;BME280;73090;49.282;11.402;2023-11-21T00:06:52;95870.91;;;5.26;97.80
83195;BME280;73090;49.282;11.402;2023-11-21T00:10:54;95875.28;;;5.26;97.75
83195;BME280;73090;49.282;11.402;2023-11-21T00:14:57;95869.28;;;5.25;97.66
83195;BME280;73090;49.282;11.402;2023-11-21T00:18:59;95870.59;;;5.21;97.64
83195;BME280;73090;49.282;11.402;2023-11-21T00:23:00;95878.56;;;5.20;97.58
83195;BME280;73090;49.282;11.402;2023-11-21T00:27:03;95866.53;;;5.19;97.92
83195;BME280;73090;49.282;11.402;2023-11-21T00:31:05;95870.91;;;5.18;97.90
83195;BME280;73090;49.282;11.402;2023-11-21T00:35:07;95869.94;;;5.19;97.93
83195;BME280;73090;49.282;11.402;2023-11-21T00:39:08;95873.19;;;5.21;98.13
83195;BME280;73090;49.282;11.402;2023-11-21T00:43:10;95872.84;;;5.24;98.02
83195;BME280;73090;49.282;11.402;2023-11-21T00:47:12;95876.28;;;5.25;97.98
83195;BME280;73090;49.282;11.402;2023-11-21T00:51:13;95874.31;;;5.27;97.94
83195;BME280;73090;49.282;11.402;2023-11-21T00:55:15;95876.13;;;5.26;97.88
83195;BME280;73090;49.282;11.402;2023-11-21T00:59:18;95868.63;;;5.23;97.82
83195;BME280;73090;49.282;11.402;2023-11-21T01:03:20;95865.53;;;5.20;97.64
83195;BME280;73090;49.282;11.402;2023-11-21T01:07:22;95876.13;;;5.18;97.53
83195;BME280;73090;49.282;11.402;2023-11-21T01:11:24;95861.66;;;5.16;97.34
83195;BME280;73090;49.282;11.402;2023-11-21T01:15:25;95869.97;;;5.11;96.94
83195;BME280;73090;49.282;11.402;2023-11-21T01:19:27;95877.31;;;5.07;97.09
83195;BME280;73090;49.282;11.402;2023-11-21T01:23:30;95874.22;;;5.04;97.19
83195;BME280;73090;49.282;11.402;2023-11-21T01:27:33;95870.19;;;5.01;96.97
83195;BME280;73090;49.282;11.402;2023-11-21T01:31:36;95869.34;;;5.01;96.91
83195;BME280;73090;49.282;11.402;2023-11-21T01:35:38;95863.03;;;4.95;97.15
83195;BME280;73090;49.282;11.402;2023-11-21T01:39:39;95858.00;;;4.94;97.24
83195;BME280;73090;49.282;11.402;2023-11-21T01:43:41;95866.28;;;4.89;97.39
83195;BME280;73090;49.282;11.402;2023-11-21T01:47:44;95861.88;;;4.89;97.34
83195;BME280;73090;49.282;11.402;2023-11-21T01:51:48;95854.91;;;4.90;97.51
83195;BME280;73090;49.282;11.402;2023-11-21T01:55:51;95850.66;;;4.89;97.47
83195;BME280;73090;49.282;11.402;2023-11-21T01:59:55;95853.44;;;4.87;97.39
83195;BME280;73090;49.282;11.402;2023-11-21T02:03:58;95845.00;;;4.85;97.53
83195;BME280;73090;49.282;11.402;2023-11-21T02:07:59;95844.00;;;4.86;97.54
83195;BME280;73090;49.282;11.402;2023-11-21T02:12:02;95850.38;;;4.84;97.59
83195;BME280;73090;49.282;11.402;2023-11-21T02:16:04;95846.94;;;4.83;97.76
83195;BME280;73090;49.282;11.402;2023-11-21T02:20:07;95848.72;;;4.83;97.80
83195;BME280;73090;49.282;11.402;2023-11-21T02:24:10;95842.88;;;4.81;97.83
83195;BME280;73090;49.282;11.402;2023-11-21T02:28:11;95841.41;;;4.78;97.67
83195;BME280;73090;49.282;11.402;2023-11-21T02:32:16;95836.22;;;4.78;97.79
83195;BME280;73090;49.282;11.402;2023-11-21T02:36:20;95838.66;;;4.80;97.83
83195;BME280;73090;49.282;11.402;2023-11-21T02:40:23;95836.22;;;4.78;97.89
83195;BME280;73090;49.282;11.402;2023-11-21T02:44:26;95829.38;;;4.77;97.97
83195;BME280;73090;49.282;11.402;2023-11-21T02:48:28;95832.97;;;4.76;97.96
83195;BME280;73090;49.282;11.402;2023-11-21T02:52:29;95824.16;;;4.77;97.86
83195;BME280;73090;49.282;11.402;2023-11-21T02:56:31;95821.38;;;4.79;97.71
83195;BME280;73090;49.282;11.402;2023-11-21T03:00:32;95825.16;;;4.76;97.86
83195;BME280;73090;49.282;11.402;2023-11-21T03:04:34;95820.28;;;4.73;97.91
83195;BME280;73090;49.282;11.402;2023-11-21T03:08:36;95825.31;;;4.75;97.91
83195;BME280;73090;49.282;11.402;2023-11-21T03:12:39;95820.91;;;4.75;97.75
83195;BME280;73090;49.282;11.402;2023-11-21T03:16:40;95822.72;;;4.75;97.75
83195;BME280;73090;49.282;11.402;2023-11-21T03:20:43;95828.25;;;4.71;97.73
83195;BME280;73090;49.282;11.402;2023-11-21T03:24:47;95839.31;;;4.73;97.89
83195;BME280;73090;49.282;11.402;2023-11-21T03:28:49;95839.47;;;4.72;97.78
83195;BME280;73090;49.282;11.402;2023-11-21T03:32:50;95839.63;;;4.70;97.88
83195;BME280;73090;49.282;11.402;2023-11-21T03:36:52;95842.25;;;4.70;97.88
83195;BME280;73090;49.282;11.402;2023-11-21T03:40:54;95839.47;;;4.72;97.76
83195;BME280;73090;49.282;11.402;2023-11-21T03:44:55;95837.88;;;4.71;97.98
83195;BME280;73090;49.282;11.402;2023-11-21T03:48:57;95838.84;;;4.70;97.65
83195;BME280;73090;49.282;11.402;2023-11-21T03:52:59;95831.19;;;4.68;97.58
83195;BME280;73090;49.282;11.402;2023-11-21T03:57:00;95825.81;;;4.70;97.64
83195;BME280;73090;49.282;11.402;2023-11-21T04:01:02;95828.41;;;4.70;97.48
83195;BME280;73090;49.282;11.402;2023-11-21T04:05:03;95833.31;;;4.65;97.35
83195;BME280;73090;49.282;11.402;2023-11-21T04:09:06;95838.84;;;4.62;97.43
83195;BME280;73090;49.282;11.402;2023-11-21T04:13:07;95838.03;;;4.61;97.48
83195;BME280;73090;49.282;11.402;2023-11-21T04:17:09;95843.75;;;4.57;97.52
83195;BME280;73090;49.282;11.402;2023-11-21T04:21:11;95842.13;;;4.56;97.79
83195;BME280;73090;49.282;11.402;2023-11-21T04:25:14;95845.53;;;4.56;97.76
83195;BME280;73090;49.282;11.402;2023-11-21T04:29:17;95847.16;;;4.57;97.83
83195;BME280;73090;49.282;11.402;2023-11-21T04:33:19;95841.97;;;4.57;97.78
83195;BME280;73090;49.282;11.402;2023-11-21T04:37:20;95843.59;;;4.58;97.74
83195;BME280;73090;49.282;11.402;2023-11-21T04:41:22;95847.00;;;4.59;97.68
83195;BME280;73090;49.282;11.402;2023-11-21T04:45:24;95846.00;;;4.60;97.65
83195;BME280;73090;49.282;11.402;2023-11-21T04:49:26;95849.59;;;4.59;97.74
83195;BME280;73090;49.282;11.402;2023-11-21T04:53:27;95848.78;;;4.58;97.79
83195;BME280;73090;49.282;11.402;2023-11-21T04:57:29;95856.41;;;4.60;97.88
83195;BME280;73090;49.282;11.402;2023-11-21T05:01:30;95854.81;;;4.59;97.78
83195;BME280;73090;49.282;11.402;2023-11-21T05:05:33;95860.81;;;4.59;97.97
83195;BME280;73090;49.282;11.402;2023-11-21T05:09:35;95853.81;;;4.60;97.93
83195;BME280;73090;49.282;11.402;2023-11-21T05:13:37;95858.84;;;4.61;98.07
83195;BME280;73090;49.282;11.402;2023-11-21T05:17:40;95862.28;;;4.62;98.17
83195;BME280;73090;49.282;11.402;2023-11-21T05:21:46;95869.09;;;4.63;98.14
83195;BME280;73090;49.282;11.402;2023-11-21T05:25:47;95861.28;;;4.63;98.08
83195;BME280;73090;49.282;11.402;2023-11-21T05:29:49;95864.72;;;4.63;98.06
83195;BME280;73090;49.282;11.402;2023-11-21T05:33:51;95869.78;;;4.65;98.15
83195;BME280;73090;49.282;11.402;2023-11-21T05:37:52;95867.97;;;4.65;98.09
83195;BME280;73090;49.282;11.402;2023-11-21T05:41:54;95875.63;;;4.67;98.15
83195;BME280;73090;49.282;11.402;2023-11-21T05:45:56;95871.38;;;4.66;97.90
83195;BME280;73090;49.282;11.402;2023-11-21T05:49:58;95877.25;;;4.68;98.22
83195;BME280;73090;49.282;11.402;2023-11-21T05:53:59;95877.88;;;4.70;98.29
83195;BME280;73090;49.282;11.402;2023-11-21T05:58:01;95889.09;;;4.70;98.45
83195;BME280;73090;49.282;11.402;2023-11-21T06:02:02;95884.91;;;4.69;98.45
83195;BME280;73090;49.282;11.402;2023-11-21T06:06:05;95886.34;;;4.72;98.50
83195;BME280;73090;49.282;11.402;2023-11-21T06:10:08;95897.59;;;4.72;98.62
83195;BME280;73090;49.282;11.402;2023-11-21T06:14:13;95901.78;;;4.73;98.58
83195;BME280;73090;49.282;11.402;2023-11-21T06:18:16;95896.44;;;4.75;98.70
83195;BME280;73090;49.282;11.402;2023-11-21T06:22:20;95897.06;;;4.77;98.74
83195;BME280;73090;49.282;11.402;2023-11-21T06:26:22;95906.50;;;4.78;98.80
83195;BME280;73090;49.282;11.402;2023-11-21T06:30:24;95910.09;;;4.77;98.78
83195;BME280;73090;49.282;11.402;2023-11-21T06:34:25;95908.16;;;4.79;98.87
83195;BME280;73090;49.282;11.402;2023-11-21T06:38:29;95909.13;;;4.78;98.86
83195;BME280;73090;49.282;11.402;2023-11-21T06:42:33;95914.50;;;4.77;98.77
83195;BME280;73090;49.282;11.402;2023-11-21T06:46:35;95920.03;;;4.73;98.74
83195;BME280;73090;49.282;11.402;2023-11-21T06:50:36;95916.13;;;4.69;98.63
83195;BME280;73090;49.282;11.402;2023-11-21T06:54:38;95925.72;;;4.69;98.71
83195;BME280;73090;49.282;11.402;2023-11-21T06:58:40;95927.53;;;4.68;98.75
83195;BME280;73090;49.282;11.402;2023-11-21T07:02:42;95925.38;;;4.72;98.77
83195;BME280;73090;49.282;11.402;2023-11-21T07:06:43;95933.22;;;4.72;98.65
83195;BME280;73090;49.282;11.402;2023-11-21T07:10:45;95942.50;;;4.75;98.68
83195;BME280;73090;49.282;11.402;2023-11-21T07:14:49;95941.50;;;4.76;98.74
83195;BME280;73090;49.282;11.402;2023-11-21T07:18:50;95938.25;;;4.82;98.70
83195;BME280;73090;49.282;11.402;2023-11-21T07:22:52;95951.59;;;4.87;98.79
83195;BME280;73090;49.282;11.402;2023-11-21T07:26:53;95958.09;;;4.91;98.90
83195;BME280;73090;49.282;11.402;2023-11-21T07:30:58;95970.78;;;4.94;98.99
83195;BME280;73090;49.282;11.402;2023-11-21T07:35:01;95974.34;;;4.93;98.86
83195;BME280;73090;49.282;11.402;2023-11-21T07:39:03;95971.78;;;5.01;98.93
83195;BME280;73090;49.282;11.402;2023-11-21T07:43:04;95971.75;;;5.09;98.92
83195;BME280;73090;49.282;11.402;2023-11-21T07:47:07;95974.81;;;5.13;98.93
83195;BME280;73090;49.282;11.402;2023-11-21T07:51:09;95985.22;;;5.21;99.11
83195;BME280;73090;49.282;11.402;2023-11-21T07:55:11;95982.28;;;5.24;99.14
83195;BME280;73090;49.282;11.402;2023-11-21T07:59:13;95986.22;;;5.29;99.00
83195;BME280;73090;49.282;11.402;2023-11-21T08:03:16;95990.25;;;5.31;98.87
83195;BME280;73090;49.282;11.402;2023-11-21T08:07:18;95988.63;;;5.38;98.89
83195;BME280;73090;49.282;11.402;2023-11-21T08:11:20;96001.81;;;5.45;98.83
83195;BME280;73090;49.282;11.402;2023-11-21T08:15:24;95998.56;;;5.43;98.59
83195;BME280;73090;49.282;11.402;2023-11-21T08:19:25;95997.72;;;5.51;98.44
83195;BME280;73090;49.282;11.402;2023-11-21T08:23:27;95994.78;;;5.54;98.67
83195;BME280;73090;49.282;11.402;2023-11-21T08:27:29;96002.09;;;5.58;98.49
83195;BME280;73090;49.282;11.402;2023-11-21T08:31:31;95996.88;;;5.67;98.38
83195;BME280;73090;49.282;11.402;2023-11-21T08:35:33;96002.53;;;5.70;98.11
83195;BME280;73090;49.282;11.402;2023-11-21T08:39:36;95993.09;;;5.77;97.96
83195;BME280;73090;49.282;11.402;2023-11-21T08:43:38;95999.41;;;5.83;98.01
83195;BME280;73090;49.282;11.402;2023-11-21T08:47:41;96003.44;;;5.94;97.88
83195;BME280;73090;49.282;11.402;2023-11-21T08:51:45;96010.63;;;6.00;97.51
83195;BME280;73090;49.282;11.402;2023-11-21T08:55:47;96012.88;;;6.03;97.40
83195;BME280;73090;49.282;11.402;2023-11-21T08:59:49;96019.53;;;6.06;97.44
83195;BME280;73090;49.282;11.402;2023-11-21T09:03:57;96020.84;;;6.10;97.16
83195;BME280;73090;49.282;11.402;2023-11-21T09:07:59;96025.56;;;6.14;97.05
83195;BME280;73090;49.282;11.402;2023-11-21T09:12:00;96027.16;;;6.15;96.81
83195;BME280;73090;49.282;11.402;2023-11-21T09:16:03;96034.66;;;6.18;96.56
83195;BME280;73090;49.282;11.402;2023-11-21T09:20:05;96033.81;;;6.26;96.09
83195;BME280;73090;49.282;11.402;2023-11-21T09:24:07;96035.44;;;6.27;95.59
83195;BME280;73090;49.282;11.402;2023-11-21T09:28:10;96044.72;;;6.30;96.06
83195;BME280;73090;49.282;11.402;2023-11-21T09:32:15;96053.66;;;6.35;95.98
83195;BME280;73090;49.282;11.402;2023-11-21T09:36:17;96060.31;;;6.46;95.73
83195;BME280;73090;49.282;11.402;2023-11-21T09:40:22;96056.41;;;6.42;95.40
83195;BME280;73090;49.282;11.402;2023-11-21T09:48:50;96051.97;;;6.51;95.59
83195;BME280;73090;49.282;11.402;2023-11-21T09:57:07;96056.16;;;6.60;94.27
83195;BME280;73090;49.282;11.402;2023-11-21T10:01:11;96057.25;;;6.66;94.73
83195;BME280;73090;49.282;11.402;2023-11-21T10:05:15;96057.28;;;6.58;92.70
83195;BME280;73090;49.282;11.402;2023-11-21T10:09:19;96050.75;;;6.62;94.45
83195;BME280;73090;49.282;11.402;2023-11-21T10:13:22;96054.91;;;6.71;94.68
83195;BME280;73090;49.282;11.402;2023-11-21T10:17:24;96051.31;;;6.72;94.12
83195;BME280;73090;49.282;11.402;2023-11-21T10:21:27;96047.44;;;6.68;93.96
83195;BME280;73090;49.282;11.402;2023-11-21T10:25:30;96046.28;;;6.70;94.42
83195;BME280;73090;49.282;11.402;2023-11-21T10:29:33;96054.75;;;6.72;94.87
83195;BME280;73090;49.282;11.402;2023-11-21T10:33:36;96054.56;;;6.74;95.04
83195;BME280;73090;49.282;11.402;2023-11-21T10:37:39;96053.47;;;6.68;93.90
83195;BME280;73090;49.282;11.402;2023-11-21T10:41:44;96053.13;;;6.71;94.31
83195;BME280;73090;49.282;11.402;2023-11-21T10:45:47;96048.84;;;6.79;95.21
83195;BME280;73090;49.282;11.402;2023-11-21T10:49:49;96051.97;;;6.74;92.66
83195;BME280;73090;49.282;11.402;2023-11-21T10:53:54;96062.41;;;6.74;92.24
83195;BME280;73090;49.282;11.402;2023-11-21T10:57:58;96060.97;;;6.71;91.16
83195;BME280;73090;49.282;11.402;2023-11-21T11:02:01;96059.41;;;6.62;91.51
83195;BME280;73090;49.282;11.402;2023-11-21T11:06:05;96062.97;;;6.61;92.81
83195;BME280;73090;49.282;11.402;2023-11-21T11:10:13;96065.47;;;6.54;92.92
83195;BME280;73090;49.282;11.402;2023-11-21T11:14:16;96060.25;;;6.54;93.27
83195;BME280;73090;49.282;11.402;2023-11-21T11:18:19;96060.75;;;6.50;92.88
83195;BME280;73090;49.282;11.402;2023-11-21T11:27:10;96065.25;;;6.64;93.57
83195;BME280;73090;49.282;11.402;2023-11-21T11:31:39;96064.63;;;6.62;91.91
83195;BME280;73090;49.282;11.402;2023-11-21T11:35:55;96061.31;;;6.68;92.48
83195;BME280;73090;49.282;11.402;2023-11-21T11:39:59;96057.53;;;6.71;91.42
83195;BME280;73090;49.282;11.402;2023-11-21T11:44:01;96053.78;;;6.74;91.55
83195;BME280;73090;49.282;11.402;2023-11-21T11:48:05;96058.75;;;6.83;92.89
83195;BME280;73090;49.282;11.402;2023-11-21T11:56:34;96057.25;;;6.89;91.29
83195;BME280;73090;49.282;11.402;2023-11-21T12:00:37;96060.06;;;6.87;93.10
83195;BME280;73090;49.282;11.402;2023-11-21T12:04:41;96055.81;;;6.86;93.51
83195;BME280;73090;49.282;11.402;2023-11-21T12:08:43;96064.09;;;6.90;92.67
83195;BME280;73090;49.282;11.402;2023-11-21T12:12:48;96066.72;;;6.90;91.21
83195;BME280;73090;49.282;11.402;2023-11-21T12:16:50;96070.34;;;6.89;92.77
83195;BME280;73090;49.282;11.402;2023-11-21T12:20:53;96075.25;;;6.84;92.72
83195;BME280;73090;49.282;11.402;2023-11-21T12:24:54;96071.53;;;6.78;92.55
83195;BME280;73090;49.282;11.402;2023-11-21T12:28:56;96079.88;;;6.74;93.63
83195;BME280;73090;49.282;11.402;2023-11-21T12:32:59;96080.25;;;6.70;93.72
83195;BME280;73090;49.282;11.402;2023-11-21T12:37:01;96075.19;;;6.69;94.66
83195;BME280;73090;49.282;11.402;2023-11-21T12:41:03;96074.38;;;6.68;95.10
83195;BME280;73090;49.282;11.402;2023-11-21T12:45:09;96082.03;;;6.70;95.05
83195;BME280;73090;49.282;11.402;2023-11-21T12:49:15;96091.31;;;6.72;95.17
83195;BME280;73090;49.282;11.402;2023-11-21T12:53:19;96086.16;;;6.64;93.36
83195;BME280;73090;49.282;11.402;2023-11-21T12:57:25;96091.03;;;6.67;94.38
83195;BME280;73090;49.282;11.402;2023-11-21T13:01:29;96093.63;;;6.67;95.10
83195;BME280;73090;49.282;11.402;2023-11-21T13:05:38;96101.75;;;6.72;95.46
83195;BME280;73090;49.282;11.402;2023-11-21T13:09:41;96110.91;;;6.77;95.50
83195;BME280;73090;49.282;11.402;2023-11-21T13:13:43;96099.72;;;6.60;93.51
83195;BME280;73090;49.282;11.402;2023-11-21T13:17:45;96105.84;;;6.44;93.81
83195;BME280;73090;49.282;11.402;2023-11-21T13:21:47;96106.03;;;6.34;94.64
83195;BME280;73090;49.282;11.402;2023-11-21T13:25:48;96118.16;;;6.18;93.66
83195;BME280;73090;49.282;11.402;2023-11-21T13:30:03;96117.06;;;6.13;94.40
83195;BME280;73090;49.282;11.402;2023-11-21T13:34:05;96123.59;;;6.09;95.29
83195;BME280;73090;49.282;11.402;2023-11-21T13:38:11;96120.97;;;6.09;95.50
83195;BME280;73090;49.282;11.402;2023-11-21T13:42:13;96127.03;;;6.09;95.03
83195;BME280;73090;49.282;11.402;2023-11-21T13:46:17;96133.81;;;6.18;95.84
83195;BME280;73090;49.282;11.402;2023-11-21T13:50:25;96131.38;;;6.25;96.36
83195;BME280;73090;49.282;11.402;2023-11-21T13:54:33;96128.44;;;6.28;96.08
83195;BME280;73090;49.282;11.402;2023-11-21T13:58:35;96130.84;;;6.30;95.80
83195;BME280;73090;49.282;11.402;2023-11-21T14:02:48;96134.28;;;6.30;95.44
83195;BME280;73090;49.282;11.402;2023-11-21T14:06:50;96134.78;;;6.26;94.85
83195;BME280;73090;49.282;11.402;2023-11-21T14:10:55;96139.22;;;6.25;94.98
83195;BME280;73090;49.282;11.402;2023-11-21T14:15:01;96145.06;;;6.27;95.74
83195;BME280;73090;49.282;11.402;2023-11-21T14:19:06;96147.97;;;6.32;96.11
83195;BME280;73090;49.282;11.402;2023-11-21T14:23:17;96151.91;;;6.37;96.04
83195;BME280;73090;49.282;11.402;2023-11-21T14:27:19;96149.63;;;6.33;95.21
83195;BME280;73090;49.282;11.402;2023-11-21T14:31:21;96155.19;;;6.30;94.38
83195;BME280;73090;49.282;11.402;2023-11-21T14:35:23;96153.38;;;6.31;94.83
83195;BME280;73090;49.282;11.402;2023-11-21T14:39:25;96152.09;;;6.27;94.53
83195;BME280;73090;49.282;11.402;2023-11-21T14:43:29;96151.09;;;6.28;95.02
83195;BME280;73090;49.282;11.402;2023-11-21T14:47:35;96155.50;;;6.27;95.75
83195;BME280;73090;49.282;11.402;2023-11-21T14:51:40;96165.31;;;6.25;96.10
83195;BME280;73090;49.282;11.402;2023-11-21T14:56:01;96171.66;;;6.23;96.30
83195;BME280;73090;49.282;11.402;2023-11-21T15:00:05;96166.31;;;6.16;96.47
83195;BME280;73090;49.282;11.402;2023-11-21T15:04:11;96174.16;;;6.08;96.44
83195;BME280;73090;49.282;11.402;2023-11-21T15:08:36;96187.19;;;5.99;96.31
83195;BME280;73090;49.282;11.402;2023-11-21T15:12:38;96184.91;;;5.88;96.32
83195;BME280;73090;49.282;11.402;2023-11-21T15:16:41;96189.81;;;5.75;96.22
83195;BME280;73090;49.282;11.402;2023-11-21T15:20:47;96190.47;;;5.60;95.89
83195;BME280;73090;49.282;11.402;2023-11-21T15:24:49;96201.41;;;5.48;95.78
83195;BME280;73090;49.282;11.402;2023-11-21T15:28:51;96194.38;;;5.32;95.78
83195;BME280;73090;49.282;11.402;2023-11-21T15:32:53;96202.81;;;5.17;95.22
83195;BME280;73090;49.282;11.402;2023-11-21T15:36:55;96198.88;;;5.05;95.57
83195;BME280;73090;49.282;11.402;2023-11-21T15:40:57;96205.50;;;4.91;95.54
83195;BME280;73090;49.282;11.402;2023-11-21T15:45:00;96206.63;;;4.80;95.79
83195;BME280;73090;49.282;11.402;2023-11-21T15:49:02;96211.00;;;4.71;96.12
83195;BME280;73090;49.282;11.402;2023-11-21T15:53:05;96210.97;;;4.63;96.08
83195;BME280;73090;49.282;11.402;2023-11-21T15:57:07;96219.56;;;4.56;96.39
83195;BME280;73090;49.282;11.402;2023-11-21T16:01:09;96228.63;;;4.51;96.45
83195;BME280;73090;49.282;11.402;2023-11-21T16:05:12;96235.44;;;4.44;96.46
83195;BME280;73090;49.282;11.402;2023-11-21T16:09:15;96241.75;;;4.42;96.73
83195;BME280;73090;49.282;11.402;2023-11-21T16:13:33;96246.97;;;4.42;97.07
83195;BME280;73090;49.282;11.402;2023-11-21T16:17:35;96248.81;;;4.49;97.22
83195;BME280;73090;49.282;11.402;2023-11-21T16:21:37;96252.06;;;4.51;97.09
83195;BME280;73090;49.282;11.402;2023-11-21T16:25:39;96258.09;;;4.52;97.34
83195;BME280;73090;49.282;11.402;2023-11-21T16:29:41;96261.22;;;4.56;97.51
83195;BME280;73090;49.282;11.402;2023-11-21T16:33:43;96267.38;;;4.54;97.59
83195;BME280;73090;49.282;11.402;2023-11-21T16:37:45;96266.41;;;4.56;97.77
83195;BME280;73090;49.282;11.402;2023-11-21T16:41:49;96265.31;;;4.58;98.04
83195;BME280;73090;49.282;11.402;2023-11-21T16:45:51;96273.75;;;4.60;98.12
83195;BME280;73090;49.282;11.402;2023-11-21T16:49:53;96276.22;;;4.62;98.15
83195;BME280;73090;49.282;11.402;2023-11-21T16:53:55;96288.09;;;4.64;98.38
83195;BME280;73090;49.282;11.402;2023-11-21T16:57:56;96292.19;;;4.67;98.49
83195;BME280;73090;49.282;11.402;2023-11-21T17:01:58;96302.28;;;4.70;98.63
83195;BME280;73090;49.282;11.402;2023-11-21T17:06:00;96299.53;;;4.71;98.60
83195;BME280;73090;49.282;11.402;2023-11-21T17:10:01;96298.56;;;4.72;98.63
83195;BME280;73090;49.282;11.402;2023-11-21T17:14:06;96308.00;;;4.73;98.75
83195;BME280;73090;49.282;11.402;2023-11-21T17:18:08;96311.44;;;4.74;98.84
83195;BME280;73090;49.282;11.402;2023-11-21T17:22:10;96314.03;;;4.74;98.70
83195;BME280;73090;49.282;11.402;2023-11-21T17:26:11;96321.00;;;4.73;98.79
83195;BME280;73090;49.282;11.402;2023-11-21T17:30:16;96321.16;;;4.72;98.72
83195;BME280;73090;49.282;11.402;2023-11-21T17:34:18;96326.22;;;4.73;98.82
83195;BME280;73090;49.282;11.402;2023-11-21T17:38:21;96322.66;;;4.75;98.93
83195;BME280;73090;49.282;11.402;2023-11-21T17:42:23;96326.22;;;4.73;98.86
83195;BME280;73090;49.282;11.402;2023-11-21T17:46:24;96322.16;;;4.71;98.83
83195;BME280;73090;49.282;11.402;2023-11-21T17:50:26;96327.22;;;4.72;98.84
83195;BME280;73090;49.282;11.402;2023-11-21T17:54:27;96327.06;;;4.74;98.72
83195;BME280;73090;49.282;11.402;2023-11-21T17:58:29;96326.22;;;4.73;98.77
83195;BME280;73090;49.282;11.402;2023-11-21T18:02:31;96333.22;;;4.73;98.96
83195;BME280;73090;49.282;11.402;2023-11-21T18:06:37;96336.78;;;4.72;98.78
83195;BME280;73090;49.282;11.402;2023-11-21T18:10:39;96347.06;;;4.73;98.98
83195;BME280;73090;49.282;11.402;2023-11-21T18:14:40;96340.72;;;4.76;98.95
83195;BME280;73090;49.282;11.402;2023-11-21T18:18:42;96339.91;;;4.76;98.77
83195;BME280;73090;49.282;11.402;2023-11-21T18:22:44;96347.88;;;4.74;98.97
83195;BME280;73090;49.282;11.402;2023-11-21T18:26:45;96347.88;;;4.74;98.87
83195;BME280;73090;49.282;11.402;2023-11-21T18:30:47;96353.91;;;4.75;98.82
83195;BME280;73090;49.282;11.402;2023-11-21T18:34:50;96360.72;;;4.76;98.76
83195;BME280;73090;49.282;11.402;2023-11-21T18:38:51;96377.84;;;4.78;98.83
83195;BME280;73090;49.282;11.402;2023-11-21T18:42:53;96387.94;;;4.81;98.66
83195;BME280;73090;49.282;11.402;2023-11-21T18:46:55;96386.16;;;4.82;98.84
83195;BME280;73090;49.282;11.402;2023-11-21T18:50:57;96389.44;;;4.84;98.86
83195;BME280;73090;49.282;11.402;2023-11-21T18:54:59;96387.81;;;4.83;98.95
83195;BME280;73090;49.282;11.402;2023-11-21T18:59:00;96405.06;;;4.84;99.03
83195;BME280;73090;49.282;11.402;2023-11-21T19:03:02;96404.22;;;4.83;98.95
83195;BME280;73090;49.282;11.402;2023-11-21T19:07:04;96416.16;;;4.86;99.11
83195;BME280;73090;49.282;11.402;2023-11-21T19:11:07;96409.13;;;4.86;99.03
83195;BME280;73090;49.282;11.402;2023-11-21T19:15:08;96409.97;;;4.87;98.91
83195;BME280;73090;49.282;11.402;2023-11-21T19:19:10;96412.44;;;4.88;98.87
83195;BME280;73090;49.282;11.402;2023-11-21T19:23:13;96412.59;;;4.87;98.93
83195;BME280;73090;49.282;11.402;2023-11-21T19:27:14;96422.84;;;4.88;98.86
83195;BME280;73090;49.282;11.402;2023-11-21T19:31:20;96429.00;;;4.87;98.86
83195;BME280;73090;49.282;11.402;2023-11-21T19:35:22;96435.72;;;4.90;98.96
83195;BME280;73090;49.282;11.402;2023-11-21T19:39:24;96441.88;;;4.89;98.86
83195;BME280;73090;49.282;11.402;2023-11-21T19:43:25;96450.50;;;4.89;98.82
83195;BME280;73090;49.282;11.402;2023-11-21T19:47:27;96452.31;;;4.89;98.91
83195;BME280;73090;49.282;11.402;2023-11-21T19:51:29;96456.56;;;4.90;98.80
83195;BME280;73090;49.282;11.402;2023-11-21T19:55:30;96463.38;;;4.91;98.90
83195;BME280;73090;49.282;11.402;2023-11-21T19:59:36;96469.44;;;4.92;98.91
83195;BME280;73090;49.282;11.402;2023-11-21T20:03:41;96481.63;;;4.91;98.79
83195;BME280;73090;49.282;11.402;2023-11-21T20:07:43;96478.06;;;4.92;98.86
83195;BME280;73090;49.282;11.402;2023-11-21T20:11:44;96482.97;;;4.95;98.96
83195;BME280;73090;49.282;11.402;2023-11-21T20:15:48;96481.16;;;4.96;98.95
83195;BME280;73090;49.282;11.402;2023-11-21T20:19:49;96486.88;;;4.99;99.06
83195;BME280;73090;49.282;11.402;2023-11-21T20:23:51;96497.31;;;4.99;98.99
83195;BME280;73090;49.282;11.402;2023-11-21T20:27:53;96499.31;;;5.05;98.86
83195;BME280;73090;49.282;11.402;2023-11-21T20:31:55;96501.94;;;4.87;98.66
83195;BME280;73090;49.282;11.402;2023-11-21T20:35:57;96505.81;;;4.83;98.45
83195;BME280;73090;49.282;11.402;2023-11-21T20:40:02;96506.50;;;4.85;98.56
83195;BME280;73090;49.282;11.402;2023-11-21T20:44:10;96514.59;;;4.82;98.46
83195;BME280;73090;49.282;11.402;2023-11-21T20:48:11;96523.38;;;4.81;98.45
83195;BME280;73090;49.282;11.402;2023-11-21T20:52:15;96535.38;;;4.74;98.40
83195;BME280;73090;49.282;11.402;2023-11-21T20:56:17;96528.59;;;4.63;97.93
83195;BME280;73090;49.282;11.402;2023-11-21T21:00:20;96534.91;;;4.61;97.91
83195;BME280;73090;49.282;11.402;2023-11-21T21:04:23;96539.81;;;4.46;97.43
83195;BME280;73090;49.282;11.402;2023-11-21T21:08:24;96551.41;;;4.33;97.41
83195;BME280;73090;49.282;11.402;2023-11-21T21:12:27;96546.91;;;4.26;97.47
83195;BME280;73090;49.282;11.402;2023-11-21T21:16:30;96543.28;;;4.18;97.32
83195;BME280;73090;49.282;11.402;2023-11-21T21:20:33;96548.22;;;4.12;97.37
83195;BME280;73090;49.282;11.402;2023-11-21T21:24:35;96556.31;;;4.09;97.62
83195;BME280;73090;49.282;11.402;2023-11-21T21:28:37;96554.97;;;4.05;97.54
83195;BME280;73090;49.282;11.402;2023-11-21T21:32:38;96559.81;;;3.99;97.14
83195;BME280;73090;49.282;11.402;2023-11-21T21:36:40;96566.28;;;3.86;96.84
83195;BME280;73090;49.282;11.402;2023-11-21T21:40:44;96586.28;;;3.75;96.75
83195;BME280;73090;49.282;11.402;2023-11-21T21:44:45;96593.19;;;3.57;96.06